sensor_id;sensor_type;location;lat;lon;timestamp;P1;durP1;ratioP1;P2;durP2;ratioP2
64609;SDS011;51019;46.090;6.350;2023-10-19T00:00:03;38.38;;;21.48;;
64609;SDS011;51019;46.090;6.350;2023-10-19T00:02:45;39.97;;;22.98;;
64609;SDS011;51019;46.090;6.350;2023-10-19T00:05:16;39.20;;;23.77;;
64609;SDS011;51019;46.090;6.350;2023-10-19T00:07:42;43.65;;;24.45;;
64609;SDS011;51019;46.090;6.350;2023-10-19T00:10:12;44.53;;;26.27;;
64609;SDS011;51019;46.090;6.350;2023-10-19T00:12:43;46.13;;;26.60;;
64609;SDS011;51019;46.090;6.350;2023-10-19T00:15:15;48.28;;;25.23;;
64609;SDS011;51019;46.090;6.350;2023-10-19T00:17:48;42.80;;;24.27;;
64609;SDS011;51019;46.090;6.350;2023-10-19T00:20:18;44.00;;;24.10;;
64609;SDS011;51019;46.090;6.350;2023-10-19T00:23:02;39.22;;;24.17;;
64609;SDS011;51019;46.090;6.350;2023-10-19T00:25:33;43.08;;;24.60;;
64609;SDS011;51019;46.090;6.350;2023-10-19T00:28:06;44.17;;;24.90;;
64609;SDS011;51019;46.090;6.350;2023-10-19T00:30:32;44.42;;;23.38;;
64609;SDS011;51019;46.090;6.350;2023-10-19T00:33:00;42.83;;;25.13;;
64609;SDS011;51019;46.090;6.350;2023-10-19T00:35:29;44.85;;;25.92;;
64609;SDS011;51019;46.090;6.350;2023-10-19T00:38:01;42.30;;;24.90;;
64609;SDS011;51019;46.090;6.350;2023-10-19T00:40:43;45.85;;;25.40;;
64609;SDS011;51019;46.090;6.350;2023-10-19T00:43:25;41.22;;;24.60;;
64609;SDS011;51019;46.090;6.350;2023-10-19T00:45:54;44.92;;;24.65;;
64609;SDS011;51019;46.090;6.350;2023-10-19T00:48:22;40.38;;;23.17;;
64609;SDS011;51019;46.090;6.350;2023-10-19T00:50:51;41.50;;;24.13;;
64609;SDS011;51019;46.090;6.350;2023-10-19T00:53:32;44.38;;;24.63;;
64609;SDS011;51019;46.090;6.350;2023-10-19T00:56:03;45.40;;;26.05;;
64609;SDS011;51019;46.090;6.350;2023-10-19T01:01:02;41.33;;;23.10;;
64609;SDS011;51019;46.090;6.350;2023-10-19T01:03:32;41.47;;;24.08;;
64609;SDS011;51019;46.090;6.350;2023-10-19T01:06:02;44.45;;;23.52;;
64609;SDS011;51019;46.090;6.350;2023-10-19T01:08:35;44.58;;;23.65;;
64609;SDS011;51019;46.090;6.350;2023-10-19T01:11:12;40.60;;;24.05;;
64609;SDS011;51019;46.090;6.350;2023-10-19T01:13:40;43.65;;;24.88;;
64609;SDS011;51019;46.090;6.350;2023-10-19T01:16:12;40.72;;;24.08;;
64609;SDS011;51019;46.090;6.350;2023-10-19T01:18:52;42.92;;;23.88;;
64609;SDS011;51019;46.090;6.350;2023-10-19T01:21:22;50.17;;;25.65;;
64609;SDS011;51019;46.090;6.350;2023-10-19T01:24:05;47.28;;;26.60;;
64609;SDS011;51019;46.090;6.350;2023-10-19T01:26:32;47.40;;;25.83;;
64609;SDS011;51019;46.090;6.350;2023-10-19T01:29:02;49.08;;;27.52;;
64609;SDS011;51019;46.090;6.350;2023-10-19T01:31:38;48.03;;;27.08;;
64609;SDS011;51019;46.090;6.350;2023-10-19T01:34:17;52.13;;;27.27;;
64609;SDS011;51019;46.090;6.350;2023-10-19T01:36:45;44.38;;;24.55;;
64609;SDS011;51019;46.090;6.350;2023-10-19T01:39:17;52.55;;;27.42;;
64609;SDS011;51019;46.090;6.350;2023-10-19T01:41:45;50.22;;;26.13;;
64609;SDS011;51019;46.090;6.350;2023-10-19T01:44:11;43.75;;;26.77;;
64609;SDS011;51019;46.090;6.350;2023-10-19T01:46:40;45.03;;;25.38;;
64609;SDS011;51019;46.090;6.350;2023-10-19T01:49:09;47.78;;;25.73;;
64609;SDS011;51019;46.090;6.350;2023-10-19T01:51:36;50.60;;;26.38;;
64609;SDS011;51019;46.090;6.350;2023-10-19T01:54:03;49.45;;;27.20;;
64609;SDS011;51019;46.090;6.350;2023-10-19T01:56:33;47.97;;;26.10;;
64609;SDS011;51019;46.090;6.350;2023-10-19T01:59:01;47.90;;;26.10;;
64609;SDS011;51019;46.090;6.350;2023-10-19T02:01:29;43.83;;;24.98;;
64609;SDS011;51019;46.090;6.350;2023-10-19T02:03:58;43.03;;;24.27;;
64609;SDS011;51019;46.090;6.350;2023-10-19T02:06:26;49.08;;;27.17;;
64609;SDS011;51019;46.090;6.350;2023-10-19T02:08:56;48.85;;;27.05;;
64609;SDS011;51019;46.090;6.350;2023-10-19T02:11:25;39.95;;;22.95;;
64609;SDS011;51019;46.090;6.350;2023-10-19T02:13:55;44.55;;;23.60;;
64609;SDS011;51019;46.090;6.350;2023-10-19T02:16:25;39.50;;;22.80;;
64609;SDS011;51019;46.090;6.350;2023-10-19T02:18:53;39.95;;;23.02;;
64609;SDS011;51019;46.090;6.350;2023-10-19T02:21:19;39.90;;;23.27;;
64609;SDS011;51019;46.090;6.350;2023-10-19T02:23:47;40.63;;;22.02;;
64609;SDS011;51019;46.090;6.350;2023-10-19T02:26:15;38.58;;;21.58;;
64609;SDS011;51019;46.090;6.350;2023-10-19T02:28:42;39.13;;;22.30;;
64609;SDS011;51019;46.090;6.350;2023-10-19T02:31:11;43.60;;;22.83;;
64609;SDS011;51019;46.090;6.350;2023-10-19T02:33:41;37.22;;;21.50;;
64609;SDS011;51019;46.090;6.350;2023-10-19T02:36:12;34.40;;;19.75;;
64609;SDS011;51019;46.090;6.350;2023-10-19T02:38:41;39.25;;;20.30;;
64609;SDS011;51019;46.090;6.350;2023-10-19T02:41:15;42.40;;;22.40;;
64609;SDS011;51019;46.090;6.350;2023-10-19T02:43:43;36.45;;;21.15;;
64609;SDS011;51019;46.090;6.350;2023-10-19T02:46:13;39.85;;;21.27;;
64609;SDS011;51019;46.090;6.350;2023-10-19T02:48:42;37.42;;;21.20;;
64609;SDS011;51019;46.090;6.350;2023-10-19T02:51:10;38.83;;;20.25;;
64609;SDS011;51019;46.090;6.350;2023-10-19T02:53:38;41.17;;;20.83;;
64609;SDS011;51019;46.090;6.350;2023-10-19T02:56:11;37.85;;;18.67;;
64609;SDS011;51019;46.090;6.350;2023-10-19T02:58:44;39.33;;;19.17;;
64609;SDS011;51019;46.090;6.350;2023-10-19T03:01:16;32.33;;;18.75;;
64609;SDS011;51019;46.090;6.350;2023-10-19T03:03:48;31.05;;;17.13;;
64609;SDS011;51019;46.090;6.350;2023-10-19T03:06:19;33.28;;;16.70;;
64609;SDS011;51019;46.090;6.350;2023-10-19T03:08:47;30.23;;;17.92;;
64609;SDS011;51019;46.090;6.350;2023-10-19T03:11:17;34.08;;;18.38;;
64609;SDS011;51019;46.090;6.350;2023-10-19T03:13:44;31.20;;;16.88;;
64609;SDS011;51019;46.090;6.350;2023-10-19T03:16:17;31.92;;;17.35;;
64609;SDS011;51019;46.090;6.350;2023-10-19T03:18:45;29.92;;;15.65;;
64609;SDS011;51019;46.090;6.350;2023-10-19T03:21:11;27.50;;;13.55;;
64609;SDS011;51019;46.090;6.350;2023-10-19T03:23:39;28.48;;;13.40;;
64609;SDS011;51019;46.090;6.350;2023-10-19T03:26:06;27.05;;;14.30;;
64609;SDS011;51019;46.090;6.350;2023-10-19T03:28:53;26.00;;;13.85;;
64609;SDS011;51019;46.090;6.350;2023-10-19T03:31:23;27.80;;;12.95;;
64609;SDS011;51019;46.090;6.350;2023-10-19T03:33:53;29.80;;;15.18;;
64609;SDS011;51019;46.090;6.350;2023-10-19T03:36:21;28.40;;;14.10;;
64609;SDS011;51019;46.090;6.350;2023-10-19T03:38:48;27.77;;;13.27;;
64609;SDS011;51019;46.090;6.350;2023-10-19T03:41:17;27.77;;;13.13;;
64609;SDS011;51019;46.090;6.350;2023-10-19T03:43:47;23.85;;;12.90;;
64609;SDS011;51019;46.090;6.350;2023-10-19T03:46:17;26.55;;;12.73;;
64609;SDS011;51019;46.090;6.350;2023-10-19T03:48:57;27.15;;;11.88;;
64609;SDS011;51019;46.090;6.350;2023-10-19T03:51:29;21.88;;;11.35;;
64609;SDS011;51019;46.090;6.350;2023-10-19T03:54:05;24.92;;;10.30;;
64609;SDS011;51019;46.090;6.350;2023-10-19T03:56:38;21.63;;;10.57;;
64609;SDS011;51019;46.090;6.350;2023-10-19T03:59:06;21.77;;;10.70;;
64609;SDS011;51019;46.090;6.350;2023-10-19T04:01:33;22.25;;;10.75;;
64609;SDS011;51019;46.090;6.350;2023-10-19T04:04:02;21.75;;;10.23;;
64609;SDS011;51019;46.090;6.350;2023-10-19T04:06:34;22.48;;;11.80;;
64609;SDS011;51019;46.090;6.350;2023-10-19T04:09:02;23.73;;;12.13;;
64609;SDS011;51019;46.090;6.350;2023-10-19T04:11:31;24.50;;;13.05;;
64609;SDS011;51019;46.090;6.350;2023-10-19T04:14:13;25.08;;;12.70;;
64609;SDS011;51019;46.090;6.350;2023-10-19T04:16:40;23.88;;;13.00;;
64609;SDS011;51019;46.090;6.350;2023-10-19T04:19:11;24.13;;;11.80;;
64609;SDS011;51019;46.090;6.350;2023-10-19T04:21:41;21.83;;;11.27;;
64609;SDS011;51019;46.090;6.350;2023-10-19T04:24:09;24.80;;;12.48;;
64609;SDS011;51019;46.090;6.350;2023-10-19T04:26:37;24.20;;;12.43;;
64609;SDS011;51019;46.090;6.350;2023-10-19T04:29:05;24.50;;;12.82;;
64609;SDS011;51019;46.090;6.350;2023-10-19T04:31:36;24.85;;;12.80;;
64609;SDS011;51019;46.090;6.350;2023-10-19T04:34:06;24.13;;;12.35;;
64609;SDS011;51019;46.090;6.350;2023-10-19T04:36:35;26.23;;;12.75;;
64609;SDS011;51019;46.090;6.350;2023-10-19T04:39:05;24.90;;;13.55;;
64609;SDS011;51019;46.090;6.350;2023-10-19T04:41:36;27.90;;;12.98;;
64609;SDS011;51019;46.090;6.350;2023-10-19T04:44:05;26.13;;;10.43;;
64609;SDS011;51019;46.090;6.350;2023-10-19T04:46:33;21.05;;;9.77;;
64609;SDS011;51019;46.090;6.350;2023-10-19T04:49:01;22.60;;;9.43;;
64609;SDS011;51019;46.090;6.350;2023-10-19T04:51:28;23.00;;;10.65;;
64609;SDS011;51019;46.090;6.350;2023-10-19T04:53:58;20.67;;;9.80;;
64609;SDS011;51019;46.090;6.350;2023-10-19T04:56:26;20.10;;;10.18;;
64609;SDS011;51019;46.090;6.350;2023-10-19T04:58:53;20.65;;;10.18;;
64609;SDS011;51019;46.090;6.350;2023-10-19T05:01:20;19.63;;;9.70;;
64609;SDS011;51019;46.090;6.350;2023-10-19T05:03:49;21.20;;;6.80;;
64609;SDS011;51019;46.090;6.350;2023-10-19T05:06:18;14.07;;;6.03;;
64609;SDS011;51019;46.090;6.350;2023-10-19T05:08:48;17.35;;;5.57;;
64609;SDS011;51019;46.090;6.350;2023-10-19T05:11:19;18.10;;;8.35;;
64609;SDS011;51019;46.090;6.350;2023-10-19T05:13:48;19.98;;;9.77;;
64609;SDS011;51019;46.090;6.350;2023-10-19T05:16:15;19.67;;;8.45;;
64609;SDS011;51019;46.090;6.350;2023-10-19T05:18:43;18.48;;;8.05;;
64609;SDS011;51019;46.090;6.350;2023-10-19T05:21:11;17.38;;;8.55;;
64609;SDS011;51019;46.090;6.350;2023-10-19T05:23:38;18.73;;;8.20;;
64609;SDS011;51019;46.090;6.350;2023-10-19T05:26:05;16.73;;;7.00;;
64609;SDS011;51019;46.090;6.350;2023-10-19T05:31:28;15.18;;;5.05;;
64609;SDS011;51019;46.090;6.350;2023-10-19T05:33:56;17.35;;;5.22;;
64609;SDS011;51019;46.090;6.350;2023-10-19T05:36:23;14.73;;;5.32;;
64609;SDS011;51019;46.090;6.350;2023-10-19T05:38:51;14.05;;;4.75;;
64609;SDS011;51019;46.090;6.350;2023-10-19T05:41:18;12.82;;;4.55;;
64609;SDS011;51019;46.090;6.350;2023-10-19T05:43:46;12.63;;;4.72;;
64609;SDS011;51019;46.090;6.350;2023-10-19T05:46:16;19.80;;;7.93;;
64609;SDS011;51019;46.090;6.350;2023-10-19T05:48:46;17.00;;;7.75;;
64609;SDS011;51019;46.090;6.350;2023-10-19T05:51:14;18.80;;;7.78;;
64609;SDS011;51019;46.090;6.350;2023-10-19T05:53:41;17.02;;;7.25;;
64609;SDS011;51019;46.090;6.350;2023-10-19T05:56:09;17.77;;;7.68;;
64609;SDS011;51019;46.090;6.350;2023-10-19T05:58:39;16.98;;;6.90;;
64609;SDS011;51019;46.090;6.350;2023-10-19T06:01:07;15.82;;;7.07;;
64609;SDS011;51019;46.090;6.350;2023-10-19T06:03:36;17.13;;;7.38;;
64609;SDS011;51019;46.090;6.350;2023-10-19T06:06:04;17.67;;;7.93;;
64609;SDS011;51019;46.090;6.350;2023-10-19T06:08:34;19.50;;;8.40;;
64609;SDS011;51019;46.090;6.350;2023-10-19T06:11:17;19.15;;;7.80;;
64609;SDS011;51019;46.090;6.350;2023-10-19T06:13:44;17.77;;;8.57;;
64609;SDS011;51019;46.090;6.350;2023-10-19T06:16:12;20.77;;;9.25;;
64609;SDS011;51019;46.090;6.350;2023-10-19T06:18:42;25.83;;;9.68;;
64609;SDS011;51019;46.090;6.350;2023-10-19T06:21:12;22.30;;;9.10;;
64609;SDS011;51019;46.090;6.350;2023-10-19T06:23:45;21.77;;;9.68;;
64609;SDS011;51019;46.090;6.350;2023-10-19T06:26:12;20.02;;;9.43;;
64609;SDS011;51019;46.090;6.350;2023-10-19T06:28:40;19.00;;;8.77;;
64609;SDS011;51019;46.090;6.350;2023-10-19T06:31:11;18.83;;;9.02;;
64609;SDS011;51019;46.090;6.350;2023-10-19T06:33:53;22.13;;;9.23;;
64609;SDS011;51019;46.090;6.350;2023-10-19T06:36:37;19.33;;;8.70;;
64609;SDS011;51019;46.090;6.350;2023-10-19T06:39:06;18.20;;;8.90;;
64609;SDS011;51019;46.090;6.350;2023-10-19T06:41:35;17.15;;;7.57;;
64609;SDS011;51019;46.090;6.350;2023-10-19T06:44:16;16.90;;;7.68;;
64609;SDS011;51019;46.090;6.350;2023-10-19T06:46:44;21.52;;;7.65;;
64609;SDS011;51019;46.090;6.350;2023-10-19T06:52:00;18.75;;;7.63;;
64609;SDS011;51019;46.090;6.350;2023-10-19T06:54:29;17.75;;;7.82;;
64609;SDS011;51019;46.090;6.350;2023-10-19T06:56:57;18.58;;;7.82;;
64609;SDS011;51019;46.090;6.350;2023-10-19T06:59:24;16.55;;;7.53;;
64609;SDS011;51019;46.090;6.350;2023-10-19T07:01:51;18.73;;;6.70;;
64609;SDS011;51019;46.090;6.350;2023-10-19T07:04:19;16.00;;;7.55;;
64609;SDS011;51019;46.090;6.350;2023-10-19T07:06:48;16.35;;;6.80;;
64609;SDS011;51019;46.090;6.350;2023-10-19T07:09:15;17.42;;;6.57;;
64609;SDS011;51019;46.090;6.350;2023-10-19T07:11:50;14.35;;;5.88;;
64609;SDS011;51019;46.090;6.350;2023-10-19T07:14:20;14.57;;;5.53;;
64609;SDS011;51019;46.090;6.350;2023-10-19T07:16:51;15.68;;;5.82;;
64609;SDS011;51019;46.090;6.350;2023-10-19T07:19:18;14.02;;;5.95;;
64609;SDS011;51019;46.090;6.350;2023-10-19T07:21:48;15.93;;;6.07;;
64609;SDS011;51019;46.090;6.350;2023-10-19T07:24:22;15.38;;;5.78;;
64609;SDS011;51019;46.090;6.350;2023-10-19T07:26:50;14.23;;;5.70;;
64609;SDS011;51019;46.090;6.350;2023-10-19T07:29:28;15.55;;;5.72;;
64609;SDS011;51019;46.090;6.350;2023-10-19T07:32:01;16.70;;;6.38;;
64609;SDS011;51019;46.090;6.350;2023-10-19T07:34:33;14.57;;;5.78;;
64609;SDS011;51019;46.090;6.350;2023-10-19T07:37:15;14.77;;;5.88;;
64609;SDS011;51019;46.090;6.350;2023-10-19T07:39:44;14.80;;;5.32;;
64609;SDS011;51019;46.090;6.350;2023-10-19T07:42:11;14.07;;;5.35;;
64609;SDS011;51019;46.090;6.350;2023-10-19T07:44:38;15.68;;;5.30;;
64609;SDS011;51019;46.090;6.350;2023-10-19T07:47:05;17.60;;;5.55;;
64609;SDS011;51019;46.090;6.350;2023-10-19T07:49:34;13.45;;;5.20;;
64609;SDS011;51019;46.090;6.350;2023-10-19T07:52:03;15.15;;;5.47;;
64609;SDS011;51019;46.090;6.350;2023-10-19T07:54:34;17.15;;;4.95;;
64609;SDS011;51019;46.090;6.350;2023-10-19T07:57:03;14.05;;;4.43;;
64609;SDS011;51019;46.090;6.350;2023-10-19T07:59:37;11.75;;;4.00;;
64609;SDS011;51019;46.090;6.350;2023-10-19T08:02:08;13.07;;;4.55;;
64609;SDS011;51019;46.090;6.350;2023-10-19T08:04:37;15.27;;;5.32;;
64609;SDS011;51019;46.090;6.350;2023-10-19T08:07:07;17.15;;;5.97;;
64609;SDS011;51019;46.090;6.350;2023-10-19T08:09:37;16.42;;;5.45;;
64609;SDS011;51019;46.090;6.350;2023-10-19T08:12:06;15.27;;;5.78;;
64609;SDS011;51019;46.090;6.350;2023-10-19T08:14:34;14.45;;;4.95;;
64609;SDS011;51019;46.090;6.350;2023-10-19T08:17:02;12.35;;;5.03;;
64609;SDS011;51019;46.090;6.350;2023-10-19T08:19:30;15.77;;;5.47;;
64609;SDS011;51019;46.090;6.350;2023-10-19T08:21:57;14.82;;;5.00;;
64609;SDS011;51019;46.090;6.350;2023-10-19T08:24:25;13.80;;;4.85;;
64609;SDS011;51019;46.090;6.350;2023-10-19T08:26:57;13.90;;;4.32;;
64609;SDS011;51019;46.090;6.350;2023-10-19T08:29:25;15.00;;;5.03;;
64609;SDS011;51019;46.090;6.350;2023-10-19T08:31:57;15.25;;;5.25;;
64609;SDS011;51019;46.090;6.350;2023-10-19T08:34:24;14.20;;;4.68;;
64609;SDS011;51019;46.090;6.350;2023-10-19T08:36:54;15.57;;;5.10;;
64609;SDS011;51019;46.090;6.350;2023-10-19T08:39:21;14.68;;;5.07;;
64609;SDS011;51019;46.090;6.350;2023-10-19T08:41:50;16.48;;;6.15;;
64609;SDS011;51019;46.090;6.350;2023-10-19T08:44:20;16.45;;;5.88;;
64609;SDS011;51019;46.090;6.350;2023-10-19T08:46:47;16.92;;;6.50;;
64609;SDS011;51019;46.090;6.350;2023-10-19T08:49:14;14.77;;;5.85;;
64609;SDS011;51019;46.090;6.350;2023-10-19T08:51:45;14.95;;;5.47;;
64609;SDS011;51019;46.090;6.350;2023-10-19T08:54:13;19.20;;;5.88;;
64609;SDS011;51019;46.090;6.350;2023-10-19T08:56:43;14.70;;;5.72;;
64609;SDS011;51019;46.090;6.350;2023-10-19T08:59:13;14.35;;;5.80;;
64609;SDS011;51019;46.090;6.350;2023-10-19T09:04:57;14.75;;;5.75;;
64609;SDS011;51019;46.090;6.350;2023-10-19T09:07:28;15.05;;;5.50;;
64609;SDS011;51019;46.090;6.350;2023-10-19T09:09:56;17.25;;;5.68;;
64609;SDS011;51019;46.090;6.350;2023-10-19T09:12:23;13.07;;;5.15;;
64609;SDS011;51019;46.090;6.350;2023-10-19T09:14:54;15.98;;;5.57;;
64609;SDS011;51019;46.090;6.350;2023-10-19T09:17:34;16.42;;;5.43;;
64609;SDS011;51019;46.090;6.350;2023-10-19T09:20:02;15.02;;;4.85;;
64609;SDS011;51019;46.090;6.350;2023-10-19T09:22:43;18.58;;;4.70;;
64609;SDS011;51019;46.090;6.350;2023-10-19T09:25:14;14.20;;;5.07;;
64609;SDS011;51019;46.090;6.350;2023-10-19T09:27:46;15.13;;;5.20;;
64609;SDS011;51019;46.090;6.350;2023-10-19T09:30:14;17.40;;;5.30;;
64609;SDS011;51019;46.090;6.350;2023-10-19T09:32:47;13.98;;;4.88;;
64609;SDS011;51019;46.090;6.350;2023-10-19T09:35:15;13.20;;;4.57;;
64609;SDS011;51019;46.090;6.350;2023-10-19T09:37:46;13.02;;;4.63;;
64609;SDS011;51019;46.090;6.350;2023-10-19T09:40:19;13.77;;;4.53;;
64609;SDS011;51019;46.090;6.350;2023-10-19T09:42:58;14.90;;;4.95;;
64609;SDS011;51019;46.090;6.350;2023-10-19T09:45:32;15.57;;;5.35;;
64609;SDS011;51019;46.090;6.350;2023-10-19T09:48:11;14.38;;;4.78;;
64609;SDS011;51019;46.090;6.350;2023-10-19T09:50:50;15.23;;;4.78;;
64609;SDS011;51019;46.090;6.350;2023-10-19T09:53:21;13.70;;;4.72;;
64609;SDS011;51019;46.090;6.350;2023-10-19T09:55:53;14.40;;;4.97;;
64609;SDS011;51019;46.090;6.350;2023-10-19T09:58:27;13.85;;;4.95;;
64609;SDS011;51019;46.090;6.350;2023-10-19T10:00:56;11.95;;;4.85;;
64609;SDS011;51019;46.090;6.350;2023-10-19T10:03:47;13.05;;;4.68;;
64609;SDS011;51019;46.090;6.350;2023-10-19T10:06:26;11.18;;;3.97;;
64609;SDS011;51019;46.090;6.350;2023-10-19T10:08:59;13.57;;;4.15;;
64609;SDS011;51019;46.090;6.350;2023-10-19T10:11:45;12.90;;;3.85;;
64609;SDS011;51019;46.090;6.350;2023-10-19T10:14:30;11.45;;;4.00;;
64609;SDS011;51019;46.090;6.350;2023-10-19T10:16:59;12.15;;;4.00;;
64609;SDS011;51019;46.090;6.350;2023-10-19T10:19:31;12.18;;;4.07;;
64609;SDS011;51019;46.090;6.350;2023-10-19T10:22:03;10.93;;;3.97;;
64609;SDS011;51019;46.090;6.350;2023-10-19T10:24:39;13.07;;;4.05;;
64609;SDS011;51019;46.090;6.350;2023-10-19T10:27:15;13.13;;;4.47;;
64609;SDS011;51019;46.090;6.350;2023-10-19T10:29:53;13.70;;;4.50;;
64609;SDS011;51019;46.090;6.350;2023-10-19T10:35:55;12.20;;;4.45;;
64609;SDS011;51019;46.090;6.350;2023-10-19T10:38:23;15.38;;;3.95;;
64609;SDS011;51019;46.090;6.350;2023-10-19T10:40:56;13.23;;;3.88;;
64609;SDS011;51019;46.090;6.350;2023-10-19T10:43:53;13.75;;;3.78;;
64609;SDS011;51019;46.090;6.350;2023-10-19T10:46:22;13.77;;;4.00;;
64609;SDS011;51019;46.090;6.350;2023-10-19T10:48:54;13.02;;;4.18;;
64609;SDS011;51019;46.090;6.350;2023-10-19T10:51:27;12.02;;;3.90;;
64609;SDS011;51019;46.090;6.350;2023-10-19T10:56:24;12.90;;;3.97;;
64609;SDS011;51019;46.090;6.350;2023-10-19T10:58:52;10.55;;;3.42;;
64609;SDS011;51019;46.090;6.350;2023-10-19T11:01:29;12.45;;;3.83;;
64609;SDS011;51019;46.090;6.350;2023-10-19T11:04:07;11.05;;;3.92;;
64609;SDS011;51019;46.090;6.350;2023-10-19T11:06:53;11.93;;;3.78;;
64609;SDS011;51019;46.090;6.350;2023-10-19T11:09:43;11.82;;;3.58;;
64609;SDS011;51019;46.090;6.350;2023-10-19T11:12:25;13.57;;;3.90;;
64609;SDS011;51019;46.090;6.350;2023-10-19T11:15:06;11.73;;;3.40;;
64609;SDS011;51019;46.090;6.350;2023-10-19T11:17:44;12.57;;;3.40;;
64609;SDS011;51019;46.090;6.350;2023-10-19T11:20:26;11.90;;;3.70;;
64609;SDS011;51019;46.090;6.350;2023-10-19T11:22:57;12.23;;;3.50;;
64609;SDS011;51019;46.090;6.350;2023-10-19T11:25:32;12.43;;;3.92;;
64609;SDS011;51019;46.090;6.350;2023-10-19T11:28:01;12.35;;;3.80;;
64609;SDS011;51019;46.090;6.350;2023-10-19T11:30:45;13.55;;;4.25;;
64609;SDS011;51019;46.090;6.350;2023-10-19T11:33:14;12.70;;;3.70;;
64609;SDS011;51019;46.090;6.350;2023-10-19T11:35:47;11.07;;;3.63;;
64609;SDS011;51019;46.090;6.350;2023-10-19T11:38:17;14.65;;;3.97;;
64609;SDS011;51019;46.090;6.350;2023-10-19T11:40:45;11.70;;;3.75;;
64609;SDS011;51019;46.090;6.350;2023-10-19T11:43:12;11.80;;;3.90;;
64609;SDS011;51019;46.090;6.350;2023-10-19T11:45:42;12.32;;;4.20;;
64609;SDS011;51019;46.090;6.350;2023-10-19T11:48:17;12.48;;;4.45;;
64609;SDS011;51019;46.090;6.350;2023-10-19T11:50:47;14.23;;;4.28;;
64609;SDS011;51019;46.090;6.350;2023-10-19T11:53:19;13.55;;;4.45;;
64609;SDS011;51019;46.090;6.350;2023-10-19T11:56:02;11.40;;;3.83;;
64609;SDS011;51019;46.090;6.350;2023-10-19T11:58:42;11.95;;;4.57;;
64609;SDS011;51019;46.090;6.350;2023-10-19T12:01:12;12.07;;;4.57;;
64609;SDS011;51019;46.090;6.350;2023-10-19T12:03:43;11.50;;;3.72;;
64609;SDS011;51019;46.090;6.350;2023-10-19T12:06:13;10.63;;;3.92;;
64609;SDS011;51019;46.090;6.350;2023-10-19T12:08:45;11.10;;;3.92;;
64609;SDS011;51019;46.090;6.350;2023-10-19T12:11:14;12.35;;;3.97;;
64609;SDS011;51019;46.090;6.350;2023-10-19T12:13:41;11.75;;;3.95;;
64609;SDS011;51019;46.090;6.350;2023-10-19T12:16:09;12.45;;;3.92;;
64609;SDS011;51019;46.090;6.350;2023-10-19T12:18:38;12.35;;;3.55;;
64609;SDS011;51019;46.090;6.350;2023-10-19T12:21:08;12.00;;;4.20;;
64609;SDS011;51019;46.090;6.350;2023-10-19T12:23:38;11.85;;;4.90;;
64609;SDS011;51019;46.090;6.350;2023-10-19T12:26:09;12.30;;;4.35;;
64609;SDS011;51019;46.090;6.350;2023-10-19T12:28:38;11.75;;;4.18;;
64609;SDS011;51019;46.090;6.350;2023-10-19T12:31:12;12.50;;;3.85;;
64609;SDS011;51019;46.090;6.350;2023-10-19T12:33:39;12.88;;;3.92;;
64609;SDS011;51019;46.090;6.350;2023-10-19T12:36:07;11.68;;;4.20;;
64609;SDS011;51019;46.090;6.350;2023-10-19T12:41:21;10.45;;;3.72;;
64609;SDS011;51019;46.090;6.350;2023-10-19T12:43:51;11.77;;;4.18;;
64609;SDS011;51019;46.090;6.350;2023-10-19T12:46:22;11.82;;;4.28;;
64609;SDS011;51019;46.090;6.350;2023-10-19T12:48:50;12.77;;;4.80;;
64609;SDS011;51019;46.090;6.350;2023-10-19T12:51:18;11.98;;;4.07;;
64609;SDS011;51019;46.090;6.350;2023-10-19T12:53:51;11.90;;;4.65;;
64609;SDS011;51019;46.090;6.350;2023-10-19T12:56:20;13.35;;;5.13;;
64609;SDS011;51019;46.090;6.350;2023-10-19T12:58:49;13.65;;;4.40;;
64609;SDS011;51019;46.090;6.350;2023-10-19T13:01:17;15.15;;;5.00;;
64609;SDS011;51019;46.090;6.350;2023-10-19T13:04:03;13.73;;;4.65;;
64609;SDS011;51019;46.090;6.350;2023-10-19T13:06:39;14.18;;;5.35;;
64609;SDS011;51019;46.090;6.350;2023-10-19T13:09:07;12.80;;;5.15;;
64609;SDS011;51019;46.090;6.350;2023-10-19T13:11:46;11.93;;;4.95;;
64609;SDS011;51019;46.090;6.350;2023-10-19T13:14:17;13.65;;;4.80;;
64609;SDS011;51019;46.090;6.350;2023-10-19T13:16:48;12.60;;;4.82;;
64609;SDS011;51019;46.090;6.350;2023-10-19T13:19:17;13.88;;;6.03;;
64609;SDS011;51019;46.090;6.350;2023-10-19T13:24:17;13.27;;;5.22;;
64609;SDS011;51019;46.090;6.350;2023-10-19T13:26:48;12.35;;;4.97;;
64609;SDS011;51019;46.090;6.350;2023-10-19T13:29:16;14.07;;;5.00;;
64609;SDS011;51019;46.090;6.350;2023-10-19T13:31:48;13.02;;;5.10;;
64609;SDS011;51019;46.090;6.350;2023-10-19T13:34:17;14.63;;;4.63;;
64609;SDS011;51019;46.090;6.350;2023-10-19T13:36:45;14.90;;;5.50;;
64609;SDS011;51019;46.090;6.350;2023-10-19T13:39:14;13.25;;;4.97;;
64609;SDS011;51019;46.090;6.350;2023-10-19T13:41:43;14.85;;;5.35;;
64609;SDS011;51019;46.090;6.350;2023-10-19T13:44:12;11.48;;;4.00;;
64609;SDS011;51019;46.090;6.350;2023-10-19T13:46:40;13.18;;;4.40;;
64609;SDS011;51019;46.090;6.350;2023-10-19T13:49:08;12.80;;;4.47;;
64609;SDS011;51019;46.090;6.350;2023-10-19T13:51:36;13.52;;;4.70;;
64609;SDS011;51019;46.090;6.350;2023-10-19T13:54:04;13.45;;;4.15;;
64609;SDS011;51019;46.090;6.350;2023-10-19T13:56:31;14.35;;;4.55;;
64609;SDS011;51019;46.090;6.350;2023-10-19T13:58:58;12.68;;;4.90;;
64609;SDS011;51019;46.090;6.350;2023-10-19T14:01:29;12.07;;;4.25;;
64609;SDS011;51019;46.090;6.350;2023-10-19T14:03:56;13.52;;;4.82;;
64609;SDS011;51019;46.090;6.350;2023-10-19T14:06:24;12.32;;;4.88;;
64609;SDS011;51019;46.090;6.350;2023-10-19T14:08:52;13.05;;;4.70;;
64609;SDS011;51019;46.090;6.350;2023-10-19T14:11:20;15.02;;;4.80;;
64609;SDS011;51019;46.090;6.350;2023-10-19T14:13:48;12.20;;;4.68;;
64609;SDS011;51019;46.090;6.350;2023-10-19T14:16:17;12.88;;;4.68;;
64609;SDS011;51019;46.090;6.350;2023-10-19T14:18:47;14.98;;;5.22;;
64609;SDS011;51019;46.090;6.350;2023-10-19T14:21:14;12.68;;;5.15;;
64609;SDS011;51019;46.090;6.350;2023-10-19T14:23:44;13.63;;;5.22;;
64609;SDS011;51019;46.090;6.350;2023-10-19T14:26:13;12.68;;;5.20;;
64609;SDS011;51019;46.090;6.350;2023-10-19T14:28:40;12.15;;;4.90;;
64609;SDS011;51019;46.090;6.350;2023-10-19T14:31:07;12.00;;;4.63;;
64609;SDS011;51019;46.090;6.350;2023-10-19T14:33:34;12.50;;;4.80;;
64609;SDS011;51019;46.090;6.350;2023-10-19T14:36:03;12.85;;;5.43;;
64609;SDS011;51019;46.090;6.350;2023-10-19T14:38:31;15.65;;;5.35;;
64609;SDS011;51019;46.090;6.350;2023-10-19T14:40:59;13.20;;;5.28;;
64609;SDS011;51019;46.090;6.350;2023-10-19T14:43:26;13.43;;;5.57;;
64609;SDS011;51019;46.090;6.350;2023-10-19T14:45:55;13.70;;;5.75;;
64609;SDS011;51019;46.090;6.350;2023-10-19T14:48:22;13.70;;;6.10;;
64609;SDS011;51019;46.090;6.350;2023-10-19T14:50:51;13.15;;;5.43;;
64609;SDS011;51019;46.090;6.350;2023-10-19T14:53:21;13.60;;;5.95;;
64609;SDS011;51019;46.090;6.350;2023-10-19T14:55:50;13.95;;;6.32;;
64609;SDS011;51019;46.090;6.350;2023-10-19T14:58:17;20.20;;;8.00;;
64609;SDS011;51019;46.090;6.350;2023-10-19T15:00:45;14.95;;;7.13;;
64609;SDS011;51019;46.090;6.350;2023-10-19T15:03:19;14.38;;;6.05;;
64609;SDS011;51019;46.090;6.350;2023-10-19T15:05:49;14.10;;;6.05;;
64609;SDS011;51019;46.090;6.350;2023-10-19T15:08:25;16.40;;;7.20;;
64609;SDS011;51019;46.090;6.350;2023-10-19T15:10:56;15.95;;;6.60;;
64609;SDS011;51019;46.090;6.350;2023-10-19T15:13:23;13.55;;;6.13;;